Portada
METAR-TAF:

METAR-TAF

Aeropuertos :

El Goléa, Argelia

latitud: 30-34N, longitud: 002-52E, altitud: 397 m

Observación

El informe se hizo hace 22 minutos, a las 10:00 UTC
Viento 10 kt del suroeste, variando entre sur y oeste
Temperatura 36°C
Humedad 10%
Presión 1011 hPa
Visibilidad: 4000 m
calima,

METAR: DAUE 181000Z 22010KT 180V260 4000 HZ NSC 36/M00 Q1011

Hora: 11:22 (10:22 UTC)


TAF: falta

Observaciones y pronósticos meteorológicos de más de 4000 aeropuertos (mensajes METAR y TAF).

Los puntos amarillos y rojos representan las estaciones disponibles.

Ponga el ratón en el punto deseado para ver el nombre de la estación.

Haga clic para ver las observaciones y los pronósticos meteorológicos.

Para cambiar el mapa : haga clic en los botones verdes con una cruz de color negro para hacer un zoom, en el botón verde con un guión para alejar o en las flechas verdes para mapas adyacentes.


METAR-TAF: